Bracey, VA

20:20 EDT le 01 septembre 2015 (GMT -0400)
MATTHEWS MANORWOOD @ LAKE GASTON | | Change Station
CLOSE
Current Station
Stations météorologiques personnelles
Location: Macon, NC
Altitude: 268 ft
Stations météo à proximité

Alt. 268 ft 36.53 °N, 78.06 °W | Updated 7 minutes ago

Ciel dégagé
Ciel dégagé
75.9 ° F
Paraît 76 ° F
N
0.0
Vent Variable Vent de SSO
Gusts 0.0 mph

Aujourd'hui
Haut(e) -- | Bas -- ° F
--% Risque de précip.
Hier
Haut(e) -- | Bas -- ° F
Precip. -- pouce
6:43 AM 7:40 PM
Lune gibbeuse décroissante, 85% visible
Pression 30.11 pouce
Visibilité 10.0 Miles terrestres
Nuages Ciel dégagé
indice de chaleur 76 ° F
Point de rosée 72 ° F
Humidité 86%
Précipitations 0.00 pouce
Profondeur de la couche neigeuse Non disponible.
UV 0 sur 12
Pollen 8.00 sur 12
Qualité de l'air Non disponible.
Flu Activity Non disponible.
METAR KAVC 012356Z AUTO 00000KT 10SM CLR 24/23 A3011 RMK AO2 T02420229 10306 20241
Pression 30.11 pouce
Visibilité 10.0 Miles terrestres
Nuages Ciel dégagé
indice de chaleur 76 ° F
Point de rosée 72 ° F
Humidité 86%
Précipitations 0.00 pouce
Profondeur de la couche neigeuse Non disponible.
UV 0 sur 12
Pollen 8.00 sur 12
Qualité de l'air Non disponible.
Flu Activity Non disponible.
METAR KAVC 012356Z AUTO 00000KT 10SM CLR 24/23 A3011 RMK AO2 T02420229 10306 20241

10-Day Weather Forecast

×

Almanac

Astronomie

Sep. 01, 2015 Lever Coucher
Temps réel
Crépuscule civil
Crépuscule nautique
Crépuscule astronomique
Lune
Durée de lumière visible
Longueur du jour
Tomorrow will be .
, % of the Moon is Illuminated

Extrêmes aujourd'hui

State Highs State Lows

Community

WunderPhotos

Upload Photos

1,851,657 Photos téléchargées !

WunderBlogs® & News

Nearby

Qualité de l'air

  Qualité de l'air Indice de la qualité de l'air Polluant
Not available.

Épaisseur de neige

Station Depth Altitude

Activité sismique

Ville Distance Mag. Time & Date
Minimum magnitude displayed is 2.5.

Températures des eaux côtières

Lieu Température

Stations

Stations météo à proximité

Emplacement de la station Température Refroidissement éolien Point de rosée Humidité Vent Precip. Alt. Mise à jour Type